Time;durP1;ratioP1;P1;durP2;ratioP2;P2;SDS_P1;SDS_P2;PMS_P1;PMS_P2;Temp;Humidity;BMP_temperature;BMP_pressure;BME280_temperature;BME280_humidity;BME280_pressure;Samples;Min_cycle;Max_cycle;Signal;HPM_P1;HPM_P2
2022/03/24 00:01:02;;;;;;;;;19.25;17.75;;;;;;;;5095469;27;45358;-74
2022/03/24 00:03:27;;;;;;;;;16.00;14.00;;;;;;;;5093619;27;45531;-74
2022/03/24 00:05:52;;;;;;;;;17.50;17.50;;;;;;;;5094919;27;45609;-74
2022/03/24 00:08:18;;;;;;;;;19.75;19.25;;;;;;;;5096390;27;45360;-74
2022/03/24 00:10:44;;;;;;;;;21.50;21.50;;;;;;;;5076046;27;45436;-74
2022/03/24 00:13:10;;;;;;;;;16.50;16.50;;;;;;;;5077619;27;46127;-74
2022/03/24 00:15:35;;;;;;;;;17.00;17.00;;;;;;;;5094956;27;45544;-74
2022/03/24 00:18:01;;;;;;;;;16.75;14.75;;;;;;;;5093851;27;45564;-74
2022/03/24 00:20:26;;;;;;;;;21.00;19.00;;;;;;;;5094561;27;46961;-74
2022/03/24 00:22:51;;;;;;;;;17.25;16.25;;;;;;;;5095213;27;46877;-74
2022/03/24 00:25:17;;;;;;;;;20.75;18.75;;;;;;;;5094400;27;45609;-74
2022/03/24 00:27:42;;;;;;;;;16.75;16.75;;;;;;;;5093488;27;45535;-74
2022/03/24 00:30:08;;;;;;;;;18.75;18.25;;;;;;;;5094551;27;45298;-74
2022/03/24 00:32:33;;;;;;;;;18.50;17.25;;;;;;;;5088372;27;46892;-74
2022/03/24 00:34:58;;;;;;;;;20.25;18.00;;;;;;;;5095762;27;45417;-74
2022/03/24 00:37:25;;;;;;;;;21.00;19.00;;;;;;;;5094632;27;45454;-74
2022/03/24 00:39:50;;;;;;;;;19.75;18.00;;;;;;;;5094829;27;45450;-74
2022/03/24 00:42:15;;;;;;;;;21.75;18.75;;;;;;;;5091937;27;46267;-74
2022/03/24 00:44:44;;;;;;;;;21.50;18.25;;;;;;;;5092545;27;45335;-74
2022/03/24 00:47:10;;;;;;;;;16.75;16.75;;;;;;;;5096698;27;45334;-74
2022/03/24 00:49:36;;;;;;;;;18.75;17.75;;;;;;;;5093315;27;45346;-73
2022/03/24 00:52:02;;;;;;;;;19.75;18.00;;;;;;;;5094616;27;46383;-74
2022/03/24 00:54:27;;;;;;;;;21.75;20.25;;;;;;;;5095212;27;45386;-74
2022/03/24 00:56:53;;;;;;;;;20.00;18.75;;;;;;;;5094565;27;45333;-74
2022/03/24 00:59:18;;;;;;;;;20.50;18.00;;;;;;;;5096075;27;45345;-74
2022/03/24 01:01:44;;;;;;;;;20.00;20.00;;;;;;;;5094188;27;45394;-74
2022/03/24 01:04:12;;;;;;;;;17.50;15.75;;;;;;;;5094092;27;45560;-74
2022/03/24 01:06:37;;;;;;;;;22.25;20.75;;;;;;;;5093778;27;45468;-74
2022/03/24 01:09:04;;;;;;;;;19.75;18.25;;;;;;;;5094269;27;45284;-73
2022/03/24 01:11:31;;;;;;;;;20.25;20.25;;;;;;;;5094173;27;45467;-74
2022/03/24 01:13:56;;;;;;;;;18.50;16.75;;;;;;;;5096468;27;45376;-74
2022/03/24 01:16:23;;;;;;;;;18.75;17.50;;;;;;;;5093940;27;45398;-74
2022/03/24 01:18:48;;;;;;;;;22.50;19.25;;;;;;;;5091536;27;45367;-74
2022/03/24 01:21:16;;;;;;;;;20.75;19.00;;;;;;;;5093823;27;46509;-74
2022/03/24 01:23:41;;;;;;;;;19.25;17.75;;;;;;;;5091945;27;45494;-74
2022/03/24 01:26:08;;;;;;;;;16.00;15.25;;;;;;;;5096458;27;45421;-74
2022/03/24 01:28:34;;;;;;;;;23.00;18.00;;;;;;;;5091839;27;45345;-74
2022/03/24 01:30:59;;;;;;;;;19.00;17.25;;;;;;;;5076632;27;46244;-74
2022/03/24 01:33:24;;;;;;;;;17.25;17.25;;;;;;;;5092361;27;45438;-74
2022/03/24 01:35:50;;;;;;;;;16.25;16.00;;;;;;;;5093812;27;45466;-74
2022/03/24 01:38:16;;;;;;;;;19.25;16.75;;;;;;;;5095299;27;45343;-74
2022/03/24 01:40:42;;;;;;;;;17.00;17.00;;;;;;;;5094895;27;45340;-73
2022/03/24 01:43:08;;;;;;;;;21.25;18.00;;;;;;;;5093791;27;45377;-74
2022/03/24 01:45:34;;;;;;;;;20.00;16.75;;;;;;;;5095008;27;45516;-74
2022/03/24 01:47:59;;;;;;;;;22.75;20.50;;;;;;;;5097322;27;45345;-74
2022/03/24 01:50:24;;;;;;;;;19.75;17.50;;;;;;;;5097307;27;46276;-74
2022/03/24 01:52:49;;;;;;;;;19.25;17.00;;;;;;;;5099798;27;45257;-74
2022/03/24 01:55:16;;;;;;;;;20.75;19.00;;;;;;;;5096694;27;45461;-74
2022/03/24 01:57:42;;;;;;;;;17.25;13.50;;;;;;;;5096712;27;45516;-74
2022/03/24 02:00:08;;;;;;;;;17.25;17.00;;;;;;;;5096747;27;46176;-74
2022/03/24 02:02:34;;;;;;;;;18.50;18.25;;;;;;;;5097020;27;45446;-74
2022/03/24 02:04:59;;;;;;;;;19.00;19.00;;;;;;;;5092742;27;46011;-74
2022/03/24 02:07:24;;;;;;;;;24.25;21.25;;;;;;;;5094555;27;45468;-74
2022/03/24 02:09:49;;;;;;;;;20.25;18.00;;;;;;;;5095529;27;45946;-74
2022/03/24 02:12:15;;;;;;;;;19.00;19.00;;;;;;;;5097114;27;45483;-74
2022/03/24 02:14:41;;;;;;;;;20.25;19.25;;;;;;;;5095058;27;45378;-74
2022/03/24 02:17:07;;;;;;;;;17.00;16.00;;;;;;;;5099244;27;45357;-74
2022/03/24 02:19:33;;;;;;;;;19.25;18.00;;;;;;;;5094793;27;46208;-74
2022/03/24 02:22:24;;;;;;;;;16.50;16.50;;;;;;;;5095122;27;45481;-74
2022/03/24 02:24:50;;;;;;;;;21.00;17.50;;;;;;;;5093264;27;45615;-74
2022/03/24 02:27:15;;;;;;;;;17.75;17.25;;;;;;;;5097018;27;45335;-74
2022/03/24 02:29:40;;;;;;;;;18.00;16.75;;;;;;;;5094940;27;45386;-74
2022/03/24 02:32:08;;;;;;;;;16.75;15.25;;;;;;;;5099126;27;45287;-74
2022/03/24 02:34:47;;;;;;;;;18.75;18.25;;;;;;;;5095245;27;45333;-74
2022/03/24 02:37:20;;;;;;;;;16.00;15.00;;;;;;;;5097004;27;45559;-74
2022/03/24 02:39:49;;;;;;;;;20.25;19.50;;;;;;;;5093168;27;46172;-74
2022/03/24 02:42:16;;;;;;;;;18.00;17.50;;;;;;;;5085644;27;45402;-74
2022/03/24 02:44:43;;;;;;;;;17.75;16.75;;;;;;;;5096420;27;45465;-74
2022/03/24 02:47:10;;;;;;;;;20.25;19.00;;;;;;;;5098911;27;45394;-74
2022/03/24 02:49:36;;;;;;;;;14.75;14.75;;;;;;;;5097154;27;46295;-74
2022/03/24 02:52:01;;;;;;;;;17.50;15.25;;;;;;;;5096580;27;45574;-74
2022/03/24 02:54:28;;;;;;;;;20.00;17.00;;;;;;;;5096595;27;45639;-74
2022/03/24 02:56:53;;;;;;;;;20.00;19.75;;;;;;;;5096769;27;45327;-74
2022/03/24 02:59:18;;;;;;;;;19.75;18.50;;;;;;;;5096752;27;46550;-74
2022/03/24 03:01:52;;;;;;;;;20.00;20.00;;;;;;;;5097802;27;45456;-74
2022/03/24 03:04:17;;;;;;;;;18.50;18.25;;;;;;;;5096547;27;45299;-74
2022/03/24 03:06:42;;;;;;;;;20.75;19.50;;;;;;;;5096300;27;45371;-74
2022/03/24 03:09:08;;;;;;;;;17.25;16.75;;;;;;;;5094351;27;46294;-74
2022/03/24 03:11:33;;;;;;;;;18.75;18.75;;;;;;;;5096281;27;45344;-74
2022/03/24 03:13:59;;;;;;;;;18.50;17.25;;;;;;;;5098468;27;45456;-74
2022/03/24 03:16:25;;;;;;;;;19.00;17.25;;;;;;;;5094682;27;45492;-74
2022/03/24 03:18:51;;;;;;;;;19.00;18.25;;;;;;;;5092538;27;46023;-74
2022/03/24 03:21:16;;;;;;;;;18.50;18.25;;;;;;;;5094650;27;45383;-73
2022/03/24 03:23:43;;;;;;;;;19.00;18.25;;;;;;;;5096165;27;45404;-74
2022/03/24 03:26:08;;;;;;;;;20.00;18.25;;;;;;;;5098120;27;45453;-74
2022/03/24 03:28:34;;;;;;;;;17.50;17.00;;;;;;;;5095841;27;45266;-74
2022/03/24 03:31:00;;;;;;;;;17.25;16.25;;;;;;;;5095094;27;45841;-73
2022/03/24 03:33:25;;;;;;;;;16.75;14.25;;;;;;;;5095509;27;45417;-74
2022/03/24 03:35:51;;;;;;;;;18.50;18.25;;;;;;;;5093987;27;45451;-74
2022/03/24 03:38:18;;;;;;;;;15.75;15.00;;;;;;;;5096977;27;47233;-74
2022/03/24 03:40:43;;;;;;;;;19.75;18.00;;;;;;;;5096723;27;45453;-74
2022/03/24 03:43:10;;;;;;;;;20.75;16.50;;;;;;;;5095477;27;45516;-74
2022/03/24 03:45:36;;;;;;;;;18.25;17.50;;;;;;;;5095724;27;45350;-74
2022/03/24 03:48:02;;;;;;;;;18.25;16.25;;;;;;;;5093836;27;46020;-74
2022/03/24 03:50:27;;;;;;;;;17.00;16.25;;;;;;;;5095709;27;45299;-74
2022/03/24 03:52:52;;;;;;;;;20.50;20.50;;;;;;;;5096243;27;45423;-74
2022/03/24 03:55:17;;;;;;;;;21.00;19.50;;;;;;;;5095470;27;45460;-74
2022/03/24 03:57:43;;;;;;;;;21.50;20.50;;;;;;;;5093285;27;46351;-74
2022/03/24 04:02:52;;;;;;;;;19.75;19.75;;;;;;;;5087683;27;45367;-74
2022/03/24 04:05:23;;;;;;;;;18.50;16.75;;;;;;;;5096262;27;45481;-74
2022/03/24 04:07:48;;;;;;;;;16.00;16.00;;;;;;;;5096338;27;50235;-73
2022/03/24 04:10:14;;;;;;;;;21.50;19.25;;;;;;;;5094442;27;45448;-74
2022/03/24 04:12:39;;;;;;;;;19.25;16.00;;;;;;;;5094679;27;45442;-74
2022/03/24 04:15:04;;;;;;;;;16.25;16.25;;;;;;;;5095283;27;45363;-74
2022/03/24 04:17:29;;;;;;;;;23.50;18.50;;;;;;;;5094301;27;46742;-74
2022/03/24 04:19:55;;;;;;;;;17.50;17.50;;;;;;;;5095766;27;45530;-73
2022/03/24 04:22:20;;;;;;;;;15.50;14.75;;;;;;;;5093819;27;45438;-74
2022/03/24 04:24:45;;;;;;;;;17.75;17.25;;;;;;;;5093931;27;45332;-74
2022/03/24 04:27:12;;;;;;;;;23.75;18.25;;;;;;;;5094739;27;46185;-74
2022/03/24 04:29:37;;;;;;;;;16.25;16.25;;;;;;;;5078976;27;45493;-74
2022/03/24 04:32:02;;;;;;;;;15.75;15.75;;;;;;;;5097067;27;45575;-74
2022/03/24 04:34:27;;;;;;;;;19.75;17.75;;;;;;;;5092204;27;45470;-74
2022/03/24 04:36:52;;;;;;;;;18.00;17.00;;;;;;;;5092409;27;46101;-74
2022/03/24 04:39:18;;;;;;;;;20.00;17.50;;;;;;;;5094763;27;45362;-73
2022/03/24 04:41:43;;;;;;;;;17.50;17.50;;;;;;;;5094584;27;45497;-74
2022/03/24 04:44:08;;;;;;;;;18.00;16.00;;;;;;;;5093695;27;45320;-74
2022/03/24 04:46:34;;;;;;;;;16.00;16.00;;;;;;;;5092890;27;46148;-74
2022/03/24 04:48:59;;;;;;;;;15.75;15.00;;;;;;;;5092565;27;45410;-74
2022/03/24 04:51:24;;;;;;;;;17.00;15.75;;;;;;;;5093284;27;45401;-74
2022/03/24 04:53:49;;;;;;;;;18.75;18.00;;;;;;;;5093458;27;45488;-74
2022/03/24 04:56:16;;;;;;;;;16.50;16.00;;;;;;;;5095785;27;46243;-74
2022/03/24 04:58:41;;;;;;;;;19.50;18.00;;;;;;;;5095816;27;45327;-74
2022/03/24 05:01:06;;;;;;;;;15.00;15.00;;;;;;;;5091944;27;45628;-74
2022/03/24 05:03:31;;;;;;;;;18.75;18.00;;;;;;;;5094367;27;45377;-74
2022/03/24 05:05:56;;;;;;;;;17.50;16.75;;;;;;;;5093911;27;45438;-74
2022/03/24 05:08:21;;;;;;;;;16.00;16.00;;;;;;;;5094790;27;45653;-74
2022/03/24 05:10:47;;;;;;;;;17.75;17.25;;;;;;;;5095906;27;45591;-74
2022/03/24 05:13:12;;;;;;;;;16.75;16.75;;;;;;;;5094237;27;45362;-74
2022/03/24 05:15:38;;;;;;;;;14.75;13.75;;;;;;;;5094308;27;45959;-74
2022/03/24 05:18:03;;;;;;;;;19.50;18.00;;;;;;;;5093899;27;45400;-75
2022/03/24 05:20:28;;;;;;;;;17.25;17.25;;;;;;;;5093782;27;45599;-74
2022/03/24 05:22:54;;;;;;;;;19.50;16.75;;;;;;;;5096748;27;45285;-74
2022/03/24 05:25:19;;;;;;;;;18.75;18.00;;;;;;;;5093599;27;46489;-74
2022/03/24 05:27:45;;;;;;;;;15.00;15.00;;;;;;;;5094222;27;45268;-74
2022/03/24 05:30:10;;;;;;;;;17.00;15.00;;;;;;;;5096085;27;45321;-74
2022/03/24 05:32:37;;;;;;;;;17.25;17.00;;;;;;;;5093634;27;45532;-74
2022/03/24 05:35:02;;;;;;;;;19.75;15.25;;;;;;;;5096350;27;45369;-74
2022/03/24 05:37:28;;;;;;;;;17.25;16.75;;;;;;;;5093119;27;45602;-74
2022/03/24 05:39:53;;;;;;;;;21.75;19.50;;;;;;;;5093689;27;45446;-74
2022/03/24 05:42:18;;;;;;;;;17.75;16.50;;;;;;;;5094405;27;45472;-74
2022/03/24 05:44:43;;;;;;;;;19.75;18.00;;;;;;;;5093756;27;46115;-74
2022/03/24 05:47:09;;;;;;;;;18.00;18.00;;;;;;;;5096079;27;45418;-74
2022/03/24 05:49:35;;;;;;;;;18.00;16.50;;;;;;;;5092774;27;45426;-74
2022/03/24 05:52:00;;;;;;;;;18.50;17.25;;;;;;;;5089508;27;45347;-74
2022/03/24 05:54:25;;;;;;;;;16.75;15.75;;;;;;;;5093363;27;45410;-74
2022/03/24 05:56:50;;;;;;;;;16.75;16.50;;;;;;;;5091705;27;45433;-74
2022/03/24 05:59:16;;;;;;;;;18.50;16.50;;;;;;;;5094762;27;45283;-72
2022/03/24 06:01:42;;;;;;;;;16.75;16.75;;;;;;;;5093261;27;45640;-72
2022/03/24 06:04:08;;;;;;;;;15.25;15.00;;;;;;;;5093664;27;46393;-74
2022/03/24 06:06:34;;;;;;;;;17.50;15.25;;;;;;;;5093264;27;45464;-74
2022/03/24 06:09:01;;;;;;;;;15.50;15.50;;;;;;;;5092584;27;45707;-74
2022/03/24 06:11:26;;;;;;;;;19.75;16.50;;;;;;;;5093088;27;45557;-72
2022/03/24 06:13:51;;;;;;;;;16.00;15.00;;;;;;;;5095300;27;46240;-72
2022/03/24 06:16:17;;;;;;;;;17.75;16.00;;;;;;;;5093652;27;45403;-71
2022/03/24 06:18:42;;;;;;;;;16.75;16.75;;;;;;;;5092745;27;45313;-72
2022/03/24 06:21:08;;;;;;;;;17.75;17.25;;;;;;;;5094244;27;45414;-72
2022/03/24 06:23:34;;;;;;;;;16.50;16.50;;;;;;;;5092452;27;46180;-72
2022/03/24 06:25:59;;;;;;;;;15.50;15.50;;;;;;;;5094755;27;45335;-72
2022/03/24 06:28:25;;;;;;;;;17.25;16.75;;;;;;;;5093732;27;45468;-72
2022/03/24 06:30:51;;;;;;;;;19.50;19.00;;;;;;;;5094882;27;45381;-74
2022/03/24 06:33:19;;;;;;;;;18.50;18.25;;;;;;;;5096467;27;45362;-74
2022/03/24 06:35:45;;;;;;;;;15.75;15.25;;;;;;;;5096933;27;45161;-74
2022/03/24 06:38:11;;;;;;;;;15.75;15.50;;;;;;;;5098570;27;45472;-73
2022/03/24 06:40:38;;;;;;;;;18.00;15.00;;;;;;;;5097128;27;45381;-75
2022/03/24 06:43:03;;;;;;;;;20.00;17.00;;;;;;;;5094295;27;46511;-72
2022/03/24 06:45:28;;;;;;;;;16.75;15.00;;;;;;;;5093552;27;45445;-72
2022/03/24 06:47:53;;;;;;;;;18.50;17.25;;;;;;;;5096273;27;45435;-72
2022/03/24 06:50:19;;;;;;;;;17.25;16.00;;;;;;;;5097962;27;45525;-73
2022/03/24 06:52:44;;;;;;;;;18.50;17.00;;;;;;;;5087668;27;45408;-74
2022/03/24 06:55:10;;;;;;;;;16.50;13.50;;;;;;;;5094294;27;45443;-74
2022/03/24 06:57:37;;;;;;;;;15.25;13.50;;;;;;;;5089847;27;46427;-73
2022/03/24 07:00:03;;;;;;;;;15.50;14.75;;;;;;;;5090370;27;45198;-73
2022/03/24 07:02:28;;;;;;;;;16.75;15.50;;;;;;;;5087861;27;46151;-73
2022/03/24 07:04:54;;;;;;;;;16.50;16.50;;;;;;;;5087940;27;45516;-73
2022/03/24 07:07:20;;;;;;;;;14.50;14.00;;;;;;;;5091770;27;45393;-72
2022/03/24 07:09:45;;;;;;;;;16.50;14.50;;;;;;;;5097546;27;45586;-73
2022/03/24 07:12:11;;;;;;;;;17.50;15.75;;;;;;;;5096437;27;45349;-71
2022/03/24 07:14:36;;;;;;;;;19.75;19.25;;;;;;;;5096064;27;46007;-70
2022/03/24 07:17:01;;;;;;;;;15.75;15.75;;;;;;;;5098479;27;45447;-75
2022/03/24 07:19:26;;;;;;;;;14.25;14.25;;;;;;;;5092127;27;45448;-75
2022/03/24 07:21:52;;;;;;;;;15.00;15.00;;;;;;;;5094381;27;47413;-78
2022/03/24 07:24:17;;;;;;;;;17.00;17.00;;;;;;;;5095670;27;45406;-72
2022/03/24 07:26:42;;;;;;;;;19.50;18.00;;;;;;;;5096692;27;45483;-72
2022/03/24 07:29:10;;;;;;;;;17.25;17.00;;;;;;;;5098511;27;45345;-69
2022/03/24 07:31:36;;;;;;;;;20.00;17.75;;;;;;;;5093509;27;47122;-70
2022/03/24 07:34:02;;;;;;;;;18.75;18.50;;;;;;;;5095345;27;46186;-69
2022/03/24 07:36:27;;;;;;;;;18.50;17.75;;;;;;;;5093913;27;45396;-69
2022/03/24 07:38:53;;;;;;;;;18.75;15.25;;;;;;;;5095965;27;45551;-69
2022/03/24 07:41:19;;;;;;;;;22.00;18.75;;;;;;;;5096265;27;47171;-70
2022/03/24 07:43:44;;;;;;;;;15.50;15.50;;;;;;;;5096257;27;45273;-72
2022/03/24 07:46:09;;;;;;;;;18.00;16.50;;;;;;;;5092510;27;45291;-72
2022/03/24 07:48:35;;;;;;;;;19.75;19.75;;;;;;;;5085764;27;45285;-71
2022/03/24 07:51:00;;;;;;;;;17.75;16.25;;;;;;;;5094931;27;46038;-72
2022/03/24 07:53:46;;;;;;;;;20.50;17.75;;;;;;;;5095841;27;45497;-71
2022/03/24 07:56:11;;;;;;;;;17.50;16.00;;;;;;;;5082554;27;45540;-72
2022/03/24 07:58:36;;;;;;;;;21.00;18.00;;;;;;;;5093273;27;45512;-72
2022/03/24 08:01:02;;;;;;;;;16.50;16.50;;;;;;;;5093557;27;48069;-72
2022/03/24 08:03:27;;;;;;;;;18.50;16.75;;;;;;;;5088038;27;45375;-72
2022/03/24 08:05:53;;;;;;;;;14.25;13.50;;;;;;;;5093783;27;45445;-71
2022/03/24 08:08:18;;;;;;;;;18.00;16.00;;;;;;;;5096573;27;45275;-70
2022/03/24 08:10:44;;;;;;;;;19.50;17.75;;;;;;;;5096236;27;45477;-72
2022/03/24 08:13:11;;;;;;;;;16.75;14.25;;;;;;;;5094859;27;45584;-72
2022/03/24 08:15:36;;;;;;;;;17.50;17.00;;;;;;;;5092544;27;45571;-72
2022/03/24 08:18:04;;;;;;;;;17.25;16.25;;;;;;;;5093019;27;45446;-72
2022/03/24 08:20:29;;;;;;;;;17.75;17.75;;;;;;;;5094786;27;46979;-72
2022/03/24 08:22:54;;;;;;;;;21.25;19.50;;;;;;;;5095455;27;45334;-72
2022/03/24 08:25:20;;;;;;;;;18.25;16.50;;;;;;;;5095315;27;45485;-72
2022/03/24 08:27:45;;;;;;;;;21.25;19.75;;;;;;;;5092580;27;45443;-70
2022/03/24 08:30:10;;;;;;;;;16.00;16.00;;;;;;;;5094885;27;45417;-70
2022/03/24 08:32:36;;;;;;;;;19.00;18.75;;;;;;;;5096367;27;45573;-70
2022/03/24 08:35:02;;;;;;;;;16.00;16.00;;;;;;;;5097288;27;45442;-72
2022/03/24 08:37:27;;;;;;;;;20.25;17.00;;;;;;;;5095012;27;45519;-72
2022/03/24 08:39:53;;;;;;;;;14.50;13.25;;;;;;;;5094545;27;46248;-72
2022/03/24 08:42:18;;;;;;;;;19.00;18.00;;;;;;;;5091471;27;45698;-72
2022/03/24 08:44:43;;;;;;;;;15.00;15.00;;;;;;;;5094673;27;45473;-72
2022/03/24 08:47:09;;;;;;;;;16.25;16.00;;;;;;;;5097051;27;45353;-72
2022/03/24 08:49:34;;;;;;;;;17.00;15.00;;;;;;;;5095479;27;46226;-72
2022/03/24 08:51:59;;;;;;;;;18.00;16.00;;;;;;;;5094648;27;45354;-72
2022/03/24 08:54:25;;;;;;;;;16.00;15.00;;;;;;;;5094398;27;45676;-69
2022/03/24 08:56:50;;;;;;;;;15.50;15.50;;;;;;;;5094607;27;45279;-69
2022/03/24 08:59:16;;;;;;;;;17.75;15.25;;;;;;;;5095519;27;47095;-72
2022/03/24 09:01:43;;;;;;;;;23.75;19.75;;;;;;;;5094733;27;45446;-72
2022/03/24 09:04:10;;;;;;;;;18.50;16.50;;;;;;;;5094493;27;45533;-72
2022/03/24 09:06:35;;;;;;;;;22.00;17.75;;;;;;;;5093825;27;45382;-72
2022/03/24 09:09:00;;;;;;;;;18.25;16.50;;;;;;;;5092017;27;47509;-72
2022/03/24 09:11:26;;;;;;;;;21.50;17.75;;;;;;;;5094286;27;45319;-72
2022/03/24 09:13:52;;;;;;;;;16.50;16.50;;;;;;;;5090028;27;45313;-72
2022/03/24 09:16:17;;;;;;;;;20.50;18.25;;;;;;;;5093351;27;45449;-72
2022/03/24 09:18:42;;;;;;;;;20.25;18.00;;;;;;;;5093488;27;45369;-72
2022/03/24 09:21:09;;;;;;;;;19.00;17.25;;;;;;;;5088142;27;45352;-72
2022/03/24 09:23:34;;;;;;;;;20.00;16.25;;;;;;;;5093873;27;45307;-72
2022/03/24 09:25:59;;;;;;;;;19.25;17.50;;;;;;;;5090788;27;45355;-72
2022/03/24 09:28:26;;;;;;;;;19.75;16.75;;;;;;;;5091351;27;47090;-72
2022/03/24 09:30:54;;;;;;;;;21.00;17.50;;;;;;;;5093574;27;45331;-69
2022/03/24 09:33:19;;;;;;;;;16.50;16.00;;;;;;;;5093676;27;45468;-69
2022/03/24 09:35:45;;;;;;;;;17.75;16.25;;;;;;;;5091933;27;45540;-69
2022/03/24 09:38:11;;;;;;;;;17.50;16.25;;;;;;;;5096170;27;47163;-69
2022/03/24 09:40:37;;;;;;;;;20.00;17.25;;;;;;;;5075931;27;45406;-69
2022/03/24 09:43:03;;;;;;;;;19.00;17.25;;;;;;;;5093685;27;45321;-70
2022/03/24 09:45:30;;;;;;;;;18.50;17.50;;;;;;;;5093365;27;45518;-69
2022/03/24 09:47:55;;;;;;;;;15.25;15.25;;;;;;;;5092294;27;45305;-69
2022/03/24 09:50:22;;;;;;;;;16.50;15.75;;;;;;;;5094555;27;45291;-69
2022/03/24 09:52:48;;;;;;;;;19.50;19.00;;;;;;;;5095389;27;45286;-69
2022/03/24 09:55:13;;;;;;;;;22.50;20.25;;;;;;;;5091383;27;45624;-70
2022/03/24 09:57:41;;;;;;;;;16.75;16.75;;;;;;;;5093209;27;47035;-70
2022/03/24 10:00:07;;;;;;;;;16.50;15.25;;;;;;;;5093116;27;45313;-70
2022/03/24 10:02:32;;;;;;;;;14.25;14.25;;;;;;;;5093573;27;45389;-70
2022/03/24 10:05:01;;;;;;;;;18.50;18.50;;;;;;;;5096211;27;45341;-69
2022/03/24 10:07:27;;;;;;;;;22.00;19.75;;;;;;;;5097117;27;45460;-69
2022/03/24 10:09:55;;;;;;;;;18.75;16.25;;;;;;;;5096707;27;45427;-69
2022/03/24 10:12:28;;;;;;;;;18.00;16.50;;;;;;;;5097019;27;45449;-70
2022/03/24 10:14:56;;;;;;;;;17.00;16.00;;;;;;;;5096718;27;45694;-70
2022/03/24 10:17:22;;;;;;;;;18.00;15.25;;;;;;;;5098216;27;46196;-69
2022/03/24 10:19:57;;;;;;;;;19.50;16.50;;;;;;;;5093514;27;45426;-69
2022/03/24 10:22:23;;;;;;;;;17.50;16.50;;;;;;;;5096509;27;45357;-70
2022/03/24 10:24:50;;;;;;;;;19.50;18.00;;;;;;;;5094113;27;45216;-70
2022/03/24 10:27:26;;;;;;;;;17.50;17.50;;;;;;;;5096959;27;45486;-69
2022/03/24 10:29:54;;;;;;;;;15.25;15.25;;;;;;;;5079715;27;45733;-72
2022/03/24 10:32:20;;;;;;;;;18.00;14.75;;;;;;;;5097846;27;45272;-72
2022/03/24 10:34:48;;;;;;;;;18.00;16.00;;;;;;;;5095590;27;45539;-72
2022/03/24 10:37:17;;;;;;;;;19.00;15.50;;;;;;;;5094276;27;47019;-72
2022/03/24 10:39:57;;;;;;;;;19.75;15.75;;;;;;;;5094056;27;45263;-70
2022/03/24 10:42:24;;;;;;;;;21.00;20.00;;;;;;;;5091171;27;45438;-70
2022/03/24 10:45:05;;;;;;;;;16.75;15.25;;;;;;;;5096324;27;45434;-69
2022/03/24 10:47:51;;;;;;;;;19.00;15.75;;;;;;;;5096764;27;45374;-70
2022/03/24 10:50:23;;;;;;;;;17.50;16.25;;;;;;;;5094929;27;45469;-69
2022/03/24 10:52:49;;;;;;;;;16.50;15.50;;;;;;;;5098274;27;45479;-70
2022/03/24 10:55:21;;;;;;;;;15.25;14.50;;;;;;;;5096195;27;45549;-69
2022/03/24 10:57:47;;;;;;;;;16.75;15.75;;;;;;;;5094276;27;46387;-72
2022/03/24 11:00:12;;;;;;;;;17.25;14.00;;;;;;;;5078037;27;45476;-69
2022/03/24 11:02:37;;;;;;;;;17.25;16.75;;;;;;;;5096446;27;45332;-72
2022/03/24 11:05:12;;;;;;;;;15.50;14.75;;;;;;;;5098816;27;45264;-71
2022/03/24 11:07:37;;;;;;;;;18.50;16.75;;;;;;;;5096621;27;45279;-71
2022/03/24 11:10:12;;;;;;;;;16.00;14.75;;;;;;;;5097286;27;45281;-71
2022/03/24 11:12:38;;;;;;;;;17.25;16.00;;;;;;;;5093054;27;45462;-71
2022/03/24 11:15:07;;;;;;;;;13.75;13.75;;;;;;;;5083280;27;45395;-71
2022/03/24 11:17:33;;;;;;;;;18.00;15.00;;;;;;;;5095244;27;46269;-72
2022/03/24 11:20:04;;;;;;;;;14.75;13.50;;;;;;;;5096032;27;45551;-71
2022/03/24 11:22:48;;;;;;;;;14.75;13.75;;;;;;;;5095376;27;45498;-72
2022/03/24 11:25:14;;;;;;;;;15.75;15.75;;;;;;;;5096001;27;45446;-71
2022/03/24 11:27:40;;;;;;;;;16.50;16.50;;;;;;;;5092975;27;46166;-71
2022/03/24 11:30:06;;;;;;;;;19.00;15.75;;;;;;;;5095703;27;45453;-71
2022/03/24 11:32:34;;;;;;;;;16.25;15.25;;;;;;;;5095475;27;45342;-71
2022/03/24 11:35:00;;;;;;;;;14.75;13.00;;;;;;;;5096938;27;45497;-71
2022/03/24 11:37:27;;;;;;;;;15.00;14.00;;;;;;;;5094815;27;46169;-71
2022/03/24 11:40:06;;;;;;;;;19.25;17.75;;;;;;;;5094501;27;45393;-72
2022/03/24 11:42:32;;;;;;;;;14.25;13.50;;;;;;;;5095370;27;45351;-71
2022/03/24 11:45:03;;;;;;;;;14.50;14.00;;;;;;;;5094080;27;45486;-71
2022/03/24 11:47:34;;;;;;;;;17.00;13.75;;;;;;;;5095290;27;45580;-71
2022/03/24 11:50:07;;;;;;;;;13.75;13.75;;;;;;;;5097764;27;45356;-72
2022/03/24 11:52:32;;;;;;;;;16.75;14.25;;;;;;;;5095599;27;45542;-71
2022/03/24 11:54:57;;;;;;;;;16.25;14.00;;;;;;;;5095451;27;45324;-71
2022/03/24 11:57:33;;;;;;;;;17.25;16.00;;;;;;;;5094930;27;46017;-72
2022/03/24 12:00:13;;;;;;;;;14.75;13.50;;;;;;;;5093587;27;45339;-72
2022/03/24 12:02:40;;;;;;;;;17.50;13.25;;;;;;;;5095982;27;45450;-72
2022/03/24 12:05:05;;;;;;;;;14.50;13.75;;;;;;;;5097613;27;45369;-71
2022/03/24 12:07:31;;;;;;;;;17.50;16.75;;;;;;;;5094876;27;45500;-71
2022/03/24 12:09:58;;;;;;;;;14.75;14.75;;;;;;;;5094799;27;45479;-71
2022/03/24 12:12:23;;;;;;;;;14.25;14.00;;;;;;;;5095420;27;45641;-72
2022/03/24 12:14:53;;;;;;;;;21.00;14.00;;;;;;;;5074115;27;45492;-71
2022/03/24 12:17:21;;;;;;;;;16.25;15.75;;;;;;;;5095902;27;46029;-71
2022/03/24 12:19:54;;;;;;;;;18.50;14.25;;;;;;;;5094568;27;45492;-71
2022/03/24 12:22:25;;;;;;;;;14.00;13.50;;;;;;;;5094835;27;45479;-71
2022/03/24 12:24:51;;;;;;;;;16.00;16.00;;;;;;;;5094511;27;45383;-72
2022/03/24 12:27:16;;;;;;;;;14.00;12.50;;;;;;;;5092876;27;45513;-71
2022/03/24 12:29:41;;;;;;;;;13.00;12.50;;;;;;;;5092530;27;45453;-71
2022/03/24 12:32:11;;;;;;;;;13.75;11.50;;;;;;;;5097113;27;45361;-71
2022/03/24 12:34:39;;;;;;;;;14.75;13.75;;;;;;;;5094504;27;45437;-71
2022/03/24 12:37:27;;;;;;;;;13.75;11.00;;;;;;;;5092849;27;45669;-71
2022/03/24 12:40:09;;;;;;;;;13.25;13.00;;;;;;;;5092750;27;45486;-71
2022/03/24 12:42:47;;;;;;;;;16.00;15.00;;;;;;;;5093570;27;45675;-71
2022/03/24 12:45:27;;;;;;;;;12.25;11.75;;;;;;;;5095298;27;45566;-71
2022/03/24 12:47:56;;;;;;;;;18.00;15.50;;;;;;;;5080371;27;46013;-72
2022/03/24 12:50:21;;;;;;;;;17.25;15.25;;;;;;;;5095311;27;45307;-71
2022/03/24 12:52:50;;;;;;;;;17.50;15.75;;;;;;;;5094366;27;45385;-71
2022/03/24 12:55:20;;;;;;;;;14.75;13.50;;;;;;;;5094677;27;45428;-71
2022/03/24 12:57:53;;;;;;;;;16.25;15.00;;;;;;;;5094170;27;45382;-71
2022/03/24 13:00:18;;;;;;;;;17.25;15.00;;;;;;;;5093222;27;45546;-71
2022/03/24 13:02:43;;;;;;;;;16.00;14.00;;;;;;;;5094157;27;45503;-71
2022/03/24 13:05:11;;;;;;;;;12.00;10.75;;;;;;;;5096947;27;45484;-72
2022/03/24 13:07:37;;;;;;;;;13.00;12.25;;;;;;;;5093238;27;47263;-72
2022/03/24 13:10:07;;;;;;;;;11.50;11.00;;;;;;;;5091559;27;45530;-71
2022/03/24 13:12:33;;;;;;;;;12.50;12.50;;;;;;;;5094451;27;45544;-71
2022/03/24 13:14:59;;;;;;;;;15.25;14.00;;;;;;;;5095803;27;45331;-71
2022/03/24 13:17:26;;;;;;;;;16.00;13.75;;;;;;;;5094626;27;46058;-71
2022/03/24 13:19:52;;;;;;;;;18.50;14.75;;;;;;;;5096542;27;45394;-71
2022/03/24 13:22:19;;;;;;;;;13.25;13.00;;;;;;;;5094160;27;45362;-72
2022/03/24 13:25:24;;;;;;;;;14.00;13.25;;;;;;;;5093771;27;45504;-71
2022/03/24 13:27:51;;;;;;;;;17.25;13.50;;;;;;;;5030950;28;46186;-71
2022/03/24 13:30:21;;;;;;;;;14.25;12.25;;;;;;;;5020969;28;45468;-71
2022/03/24 13:32:48;;;;;;;;;12.50;12.50;;;;;;;;5032194;28;45486;-71
2022/03/24 13:35:16;;;;;;;;;15.50;13.50;;;;;;;;5032338;28;45397;-71
2022/03/24 13:37:52;;;;;;;;;18.50;14.00;;;;;;;;5032233;28;45474;-71
2022/03/24 13:40:21;;;;;;;;;17.50;15.75;;;;;;;;5032867;28;45496;-71
2022/03/24 13:42:47;;;;;;;;;11.25;11.25;;;;;;;;5035036;28;45479;-71
2022/03/24 13:45:13;;;;;;;;;14.75;13.50;;;;;;;;5034877;28;45574;-71
2022/03/24 13:47:45;;;;;;;;;12.75;12.00;;;;;;;;5035728;28;45389;-72
2022/03/24 13:50:11;;;;;;;;;14.50;13.50;;;;;;;;5032705;28;45426;-71
2022/03/24 13:52:40;;;;;;;;;19.00;14.25;;;;;;;;5034780;28;46340;-71
2022/03/24 13:55:07;;;;;;;;;13.00;11.00;;;;;;;;5035339;28;45572;-71
2022/03/24 13:58:03;;;;;;;;;13.50;11.25;;;;;;;;5035951;27;46044;-71
2022/03/24 14:00:30;;;;;;;;;14.50;11.75;;;;;;;;5076484;27;45469;-71
2022/03/24 14:03:00;;;;;;;;;13.25;13.00;;;;;;;;5095510;27;45463;-71
2022/03/24 14:05:42;;;;;;;;;15.50;12.25;;;;;;;;5097725;27;45476;-71
2022/03/24 14:08:08;;;;;;;;;13.75;13.75;;;;;;;;5098774;27;45373;-71
2022/03/24 14:10:43;;;;;;;;;14.25;12.75;;;;;;;;5096926;27;45575;-72
2022/03/24 14:13:16;;;;;;;;;17.25;13.00;;;;;;;;5097265;27;45456;-72
2022/03/24 14:15:41;;;;;;;;;13.75;11.00;;;;;;;;5097160;27;45359;-71
2022/03/24 14:18:17;;;;;;;;;15.00;13.75;;;;;;;;5097779;27;45248;-71